createdAt,value
2023-03-22T00:01:31.131Z,99282.78
2023-03-22T00:03:59.783Z,99277.41
2023-03-22T00:06:28.856Z,99267.00
2023-03-22T00:08:56.715Z,99268.41
2023-03-22T00:11:25.806Z,99271.00
2023-03-22T00:13:54.901Z,99263.19
2023-03-22T00:16:23.388Z,99268.19
2023-03-22T00:18:51.298Z,99256.78
2023-03-22T00:21:19.445Z,99255.19
2023-03-22T00:23:48.449Z,99226.78
2023-03-22T00:26:16.451Z,99264.34
2023-03-22T00:28:44.289Z,99254.94
2023-03-22T00:31:12.358Z,99260.38
2023-03-22T00:33:40.701Z,99265.56
2023-03-22T00:36:10.814Z,99256.38
2023-03-22T00:38:43.868Z,99246.38
2023-03-22T00:41:16.126Z,99256.38
2023-03-22T00:43:44.719Z,99271.78
2023-03-22T00:46:13.541Z,99261.78
2023-03-22T00:48:41.179Z,99252.97
2023-03-22T00:51:09.960Z,99247.38
2023-03-22T00:53:37.502Z,99248.59
2023-03-22T00:56:06.448Z,99238.38
2023-03-22T00:58:35.672Z,99236.38
2023-03-22T01:01:03.452Z,99237.38
2023-03-22T01:03:31.210Z,99237.75
2023-03-22T01:05:59.288Z,99232.31
2023-03-22T01:08:33.628Z,99231.72
2023-03-22T01:11:01.993Z,99227.88
2023-03-22T01:13:29.985Z,99213.91
2023-03-22T01:15:59.083Z,99237.34
2023-03-22T01:18:26.731Z,99227.28
2023-03-22T01:20:54.588Z,99231.13
2023-03-22T01:23:22.421Z,99231.94
2023-03-22T01:25:50.158Z,99226.28
2023-03-22T01:28:17.823Z,99224.88
2023-03-22T01:30:45.508Z,99222.88
2023-03-22T01:33:14.630Z,99236.69
2023-03-22T01:35:42.360Z,99223.47
2023-03-22T01:38:10.026Z,99234.50
2023-03-22T01:40:38.069Z,99234.09
2023-03-22T01:43:11.505Z,99197.53
2023-03-22T01:45:42.459Z,99235.28
2023-03-22T01:48:16.896Z,99233.69
2023-03-22T01:50:50.812Z,99231.28
2023-03-22T01:53:23.697Z,99234.28
2023-03-22T01:55:53.089Z,99233.09
2023-03-22T01:58:21.301Z,99240.09
2023-03-22T02:00:51.201Z,99241.50
2023-03-22T02:03:26.913Z,99238.50
2023-03-22T02:05:55.353Z,99231.53
2023-03-22T02:08:23.206Z,99229.31
2023-03-22T02:10:50.959Z,99225.13
2023-03-22T02:13:34.913Z,99222.91
2023-03-22T02:16:13.686Z,99224.94
2023-03-22T02:18:58.785Z,99213.31
2023-03-22T02:21:54.238Z,99198.50
2023-03-22T02:24:55.586Z,99189.09
2023-03-22T02:27:52.051Z,99176.94
2023-03-22T02:30:41.307Z,99179.06
2023-03-22T02:33:27.535Z,99150.66
2023-03-22T02:36:30.851Z,99159.41
2023-03-22T02:39:11.669Z,99149.41
2023-03-22T02:41:52.278Z,99150.41
2023-03-22T02:44:27.326Z,99138.41
2023-03-22T02:47:02.990Z,99137.59
2023-03-22T02:49:37.380Z,99127.38
2023-03-22T02:52:12.586Z,99111.91
2023-03-22T02:54:46.842Z,99107.09
2023-03-22T02:57:19.537Z,99097.28
2023-03-22T02:59:48.151Z,99089.25
2023-03-22T03:02:18.488Z,99082.25
2023-03-22T03:04:49.904Z,99074.22
2023-03-22T03:07:21.762Z,99063.44
2023-03-22T03:09:51.371Z,99031.31
2023-03-22T03:12:21.922Z,99041.69
2023-03-22T03:14:49.511Z,99051.59
2023-03-22T03:17:28.895Z,99042.44
2023-03-22T03:20:21.911Z,99026.06
2023-03-22T03:23:00.127Z,99029.38
2023-03-22T03:25:43.209Z,99018.16
2023-03-22T03:28:16.050Z,99012.91
2023-03-22T03:30:50.500Z,99010.28
2023-03-22T03:33:21.529Z,98993.31
2023-03-22T03:35:54.559Z,98990.72
2023-03-22T03:38:26.902Z,98984.50
2023-03-22T03:41:00.320Z,98972.25
2023-03-22T03:43:28.014Z,98956.59
2023-03-22T03:45:56.682Z,98940.81
2023-03-22T03:48:27.597Z,98959.34
2023-03-22T03:50:58.389Z,98948.94
2023-03-22T03:53:26.268Z,98949.38
2023-03-22T03:55:53.975Z,98946.75
2023-03-22T03:58:23.365Z,98944.06
2023-03-22T04:00:51.716Z,98935.03
2023-03-22T04:03:19.383Z,98946.34
2023-03-22T04:05:47.054Z,98932.16
2023-03-22T04:08:15.029Z,98936.94
2023-03-22T04:10:42.816Z,98927.31
2023-03-22T04:13:10.529Z,98918.72
2023-03-22T04:15:39.565Z,98914.63
2023-03-22T04:18:09.628Z,98920.44
2023-03-22T04:20:39.156Z,98917.69
2023-03-22T04:23:07.014Z,98908.09
2023-03-22T04:25:37.842Z,98905.09
2023-03-22T04:28:06.026Z,98894.69
2023-03-22T04:30:36.367Z,98886.00
2023-03-22T04:33:07.186Z,98876.25
2023-03-22T04:35:35.607Z,98888.38
2023-03-22T04:38:03.308Z,98886.44
2023-03-22T04:40:35.203Z,98882.75
2023-03-22T04:43:04.218Z,98882.38
2023-03-22T04:45:32.371Z,98890.94
2023-03-22T04:48:00.917Z,98879.94
2023-03-22T04:50:30.009Z,98871.03
2023-03-22T04:52:58.396Z,98867.13
2023-03-22T04:55:27.621Z,98872.34
2023-03-22T04:57:56.003Z,98876.75
2023-03-22T05:00:23.939Z,98878.13
2023-03-22T05:02:51.634Z,98875.91
2023-03-22T05:05:19.322Z,98871.13
2023-03-22T05:07:48.346Z,98868.72
2023-03-22T05:10:16.082Z,98874.50
2023-03-22T05:12:43.819Z,98875.16
2023-03-22T05:15:11.925Z,98872.75
2023-03-22T05:17:39.589Z,98881.81
2023-03-22T05:20:10.121Z,98885.06
2023-03-22T05:22:40.588Z,98884.66
2023-03-22T05:25:11.459Z,98885.41
2023-03-22T05:27:39.267Z,98890.41
2023-03-22T05:30:08.375Z,98888.59
2023-03-22T05:32:37.583Z,98880.72
2023-03-22T05:35:06.942Z,98885.19
2023-03-22T05:37:34.745Z,98882.53
2023-03-22T05:40:02.500Z,98882.53
2023-03-22T05:42:31.513Z,98882.53
2023-03-22T05:44:59.302Z,98886.66
2023-03-22T05:47:26.984Z,98890.25
2023-03-22T05:49:54.677Z,98877.91
2023-03-22T05:52:22.350Z,98882.91
2023-03-22T05:54:50.106Z,98887.66
2023-03-22T05:57:18.470Z,98894.69
2023-03-22T05:59:47.506Z,98889.34
2023-03-22T06:02:15.619Z,98902.72
2023-03-22T06:04:43.386Z,98897.94
2023-03-22T06:07:11.610Z,98904.16
2023-03-22T06:09:39.422Z,98906.56
2023-03-22T06:12:07.708Z,98917.19
2023-03-22T06:14:35.662Z,98910.53
2023-03-22T06:17:04.739Z,98916.03
2023-03-22T06:19:32.486Z,98919.44
2023-03-22T06:22:00.460Z,98912.56
2023-03-22T06:24:28.242Z,98920.94
2023-03-22T06:26:55.960Z,98927.81
2023-03-22T06:29:23.692Z,98932.19
2023-03-22T06:31:51.362Z,98933.88
2023-03-22T06:34:20.621Z,98945.47
2023-03-22T06:36:48.562Z,98957.38
2023-03-22T06:39:16.287Z,98967.84
2023-03-22T06:41:43.957Z,98964.00
2023-03-22T06:44:11.661Z,98970.81
2023-03-22T06:46:39.432Z,98967.97
2023-03-22T06:49:07.937Z,98978.19
2023-03-22T06:51:37.465Z,98991.50
2023-03-22T06:54:05.595Z,98994.13
2023-03-22T06:56:33.303Z,99007.72
2023-03-22T06:59:01.052Z,99004.91
2023-03-22T07:01:28.717Z,99015.63
2023-03-22T07:03:56.413Z,99015.44
2023-03-22T07:06:24.268Z,99024.38
2023-03-22T07:08:53.424Z,99027.00
2023-03-22T07:11:21.274Z,99041.53
2023-03-22T07:13:49.091Z,99032.88
2023-03-22T07:16:19.365Z,99046.91
2023-03-22T07:18:48.232Z,99051.47
2023-03-22T07:21:16.237Z,99055.97
2023-03-22T07:23:43.979Z,99051.13
2023-03-22T07:26:13.819Z,99038.78
2023-03-22T07:28:44.465Z,99043.94
2023-03-22T07:31:14.104Z,99021.41
2023-03-22T07:33:42.264Z,99052.59
2023-03-22T07:36:11.563Z,99055.84
2023-03-22T07:38:39.293Z,99055.75
2023-03-22T07:41:07.645Z,99061.63
2023-03-22T07:43:50.852Z,99059.25
2023-03-22T07:46:21.100Z,99060.78
2023-03-22T07:48:49.492Z,99065.03
2023-03-22T07:51:17.150Z,99069.69
2023-03-22T07:53:44.887Z,99070.16
2023-03-22T07:56:12.576Z,99092.50
2023-03-22T07:58:41.696Z,99086.41
2023-03-22T08:01:10.839Z,99076.28
2023-03-22T08:03:39.105Z,99098.59
2023-03-22T08:06:08.507Z,99092.03
2023-03-22T08:08:37.799Z,99105.47
2023-03-22T08:11:05.685Z,99104.81
2023-03-22T08:13:33.523Z,99109.00
2023-03-22T08:16:02.610Z,99127.03
2023-03-22T08:18:30.527Z,99113.13
2023-03-22T08:20:59.824Z,99125.09
2023-03-22T08:23:40.931Z,99129.59
2023-03-22T08:26:09.702Z,99130.97
2023-03-22T08:28:37.554Z,99122.41
2023-03-22T08:31:14.721Z,99112.31
2023-03-22T08:33:43.565Z,99115.16
2023-03-22T08:36:13.992Z,99110.19
2023-03-22T08:38:42.338Z,99110.31
2023-03-22T08:41:10.696Z,99109.13
2023-03-22T08:43:38.497Z,99107.09
2023-03-22T08:46:06.799Z,99110.72
2023-03-22T08:48:37.929Z,99112.22
2023-03-22T08:51:06.756Z,99103.56
2023-03-22T08:53:34.640Z,99116.03
2023-03-22T08:56:03.686Z,99112.47
2023-03-22T08:58:31.525Z,99114.28
2023-03-22T09:00:59.343Z,99105.81
2023-03-22T09:03:27.043Z,99096.28
2023-03-22T09:05:56.250Z,99088.09
2023-03-22T09:08:24.016Z,99083.94
2023-03-22T09:10:52.225Z,99075.59
2023-03-22T09:13:20.425Z,99054.00
2023-03-22T09:15:48.822Z,99044.38
2023-03-22T09:18:17.233Z,99022.88
2023-03-22T09:20:46.018Z,99027.78
2023-03-22T09:23:15.448Z,99012.94
2023-03-22T09:25:44.162Z,98989.56
2023-03-22T09:28:12.039Z,98983.34
2023-03-22T09:30:40.421Z,98956.50
2023-03-22T09:33:08.370Z,98953.63
2023-03-22T09:35:36.278Z,98933.53
2023-03-22T09:38:05.989Z,98942.22
2023-03-22T09:40:38.480Z,98926.44
2023-03-22T09:43:09.580Z,98916.16
2023-03-22T09:45:41.214Z,98890.50
2023-03-22T09:48:16.733Z,98886.50
2023-03-22T09:50:47.702Z,98852.22
2023-03-22T09:53:17.234Z,98812.75
2023-03-22T09:55:51.397Z,98788.47
2023-03-22T09:58:25.872Z,98745.75
2023-03-22T10:00:58.834Z,98734.41
2023-03-22T10:03:46.891Z,98732.81
2023-03-22T10:06:18.893Z,98712.75
2023-03-22T10:09:00.587Z,98710.16
2023-03-22T10:11:41.044Z,98703.72
2023-03-22T10:14:25.350Z,98694.66
2023-03-22T10:16:56.672Z,98687.66
2023-03-22T10:19:29.283Z,98685.84
2023-03-22T10:22:00.121Z,98685.16
2023-03-22T10:24:31.059Z,98685.50
2023-03-22T10:27:00.227Z,98682.44
2023-03-22T10:29:33.103Z,98685.84
2023-03-22T10:32:13.964Z,98672.81
2023-03-22T10:34:41.677Z,98673.59
2023-03-22T10:37:15.441Z,98671.91
2023-03-22T10:39:46.340Z,98655.81
2023-03-22T10:42:19.126Z,98657.41
2023-03-22T10:44:51.396Z,98649.38
2023-03-22T10:47:22.982Z,98631.94
2023-03-22T10:49:55.898Z,98627.59
2023-03-22T10:52:34.624Z,98608.72
2023-03-22T10:55:04.440Z,98597.03
2023-03-22T10:57:34.366Z,98595.91
2023-03-22T11:00:08.128Z,98585.13
2023-03-22T11:02:35.993Z,98582.19
2023-03-22T11:05:07.128Z,98586.03
2023-03-22T11:07:36.690Z,98592.69
2023-03-22T11:10:22.163Z,98590.69
2023-03-22T11:12:54.067Z,98589.53
2023-03-22T11:15:26.601Z,98576.84
2023-03-22T11:18:00.086Z,98577.06
2023-03-22T11:20:29.928Z,98584.66
2023-03-22T11:23:02.604Z,98581.72
2023-03-22T11:25:32.533Z,98594.28
2023-03-22T11:28:16.415Z,98589.84
2023-03-22T11:30:59.899Z,98599.63
2023-03-22T11:33:27.858Z,98631.94
2023-03-22T11:35:57.217Z,98640.97
2023-03-22T11:38:31.152Z,98646.34
2023-03-22T11:41:03.243Z,98663.91
2023-03-22T11:43:37.015Z,98675.91
2023-03-22T11:46:06.341Z,98699.13
2023-03-22T11:48:35.104Z,98719.38
2023-03-22T11:51:09.491Z,98725.66
2023-03-22T11:53:40.525Z,98705.72
2023-03-22T11:56:12.135Z,98724.94
2023-03-22T11:58:59.626Z,98731.16
2023-03-22T12:01:41.896Z,98740.22
2023-03-22T12:04:15.054Z,98744.41
2023-03-22T12:06:44.088Z,98747.91
2023-03-22T12:09:23.163Z,98745.88
2023-03-22T12:11:54.171Z,98746.13
2023-03-22T12:14:27.737Z,98763.25
2023-03-22T12:17:00.852Z,98770.28
2023-03-22T12:19:41.287Z,98773.44
2023-03-22T12:22:13.073Z,98787.63
2023-03-22T12:24:42.799Z,98801.22
2023-03-22T12:27:18.613Z,98799.63
2023-03-22T12:29:53.106Z,98813.03
2023-03-22T12:32:25.451Z,98801.38
2023-03-22T12:35:01.331Z,98803.06
2023-03-22T12:37:38.865Z,98785.47
2023-03-22T12:40:16.581Z,98803.19
2023-03-22T12:42:53.269Z,98799.56
2023-03-22T12:45:27.862Z,98781.50
2023-03-22T12:48:01.400Z,98778.22
2023-03-22T12:50:35.220Z,98768.25
2023-03-22T12:53:04.456Z,98772.75
2023-03-22T12:55:35.641Z,98757.09
2023-03-22T12:58:06.134Z,98775.50
2023-03-22T13:00:41.673Z,98779.91
2023-03-22T13:03:24.089Z,98787.41
2023-03-22T13:06:01.893Z,98784.56
2023-03-22T13:09:13.168Z,98785.72
2023-03-22T13:11:41.080Z,98782.19
2023-03-22T13:14:08.929Z,98784.13
2023-03-22T13:16:53.273Z,98775.50
2023-03-22T13:19:31.469Z,98772.19
2023-03-22T13:22:21.127Z,98771.53
2023-03-22T13:25:07.229Z,98771.41
2023-03-22T13:27:37.856Z,98765.72
2023-03-22T13:30:15.252Z,98774.69
2023-03-22T13:32:54.614Z,98780.56
2023-03-22T13:35:27.845Z,98784.31
2023-03-22T13:38:02.792Z,98779.44
2023-03-22T13:40:36.150Z,98789.53
2023-03-22T13:43:22.379Z,98790.78
2023-03-22T13:46:28.794Z,98795.75
2023-03-22T13:49:38.872Z,98798.03
2023-03-22T13:52:09.415Z,98811.09
2023-03-22T13:54:42.411Z,98820.53
2023-03-22T13:57:38.575Z,98816.06
2023-03-22T14:00:20.453Z,98811.97
2023-03-22T14:02:51.300Z,98817.66
2023-03-22T14:05:24.144Z,98816.97
2023-03-22T14:07:54.481Z,98807.13
2023-03-22T14:10:26.058Z,98793.03
2023-03-22T14:12:56.681Z,98788.59
2023-03-22T14:15:26.573Z,98788.44
2023-03-22T14:18:00.643Z,98782.91
2023-03-22T14:20:34.728Z,98775.16
